createdAt,value
2022-08-18T00:01:11.875Z,1.33
2022-08-18T00:03:56.027Z,1.48
2022-08-18T00:09:10.074Z,1.58
2022-08-18T00:11:40.451Z,2.00
2022-08-18T00:14:11.554Z,1.73
2022-08-18T00:16:46.074Z,1.77
2022-08-18T00:19:12.926Z,1.63
2022-08-18T00:21:39.826Z,1.70
2022-08-18T00:24:06.482Z,1.50
2022-08-18T00:26:36.844Z,1.90
2022-08-18T00:29:03.930Z,1.80
2022-08-18T00:31:31.542Z,1.52
2022-08-18T00:33:58.338Z,1.50
2022-08-18T00:36:25.030Z,1.45
2022-08-18T00:38:51.930Z,1.27
2022-08-18T00:41:18.587Z,1.70
2022-08-18T00:43:47.398Z,1.35
2022-08-18T00:46:24.770Z,1.50
2022-08-18T00:48:52.821Z,1.40
2022-08-18T00:51:34.385Z,1.40
2022-08-18T00:56:43.896Z,1.38
2022-08-18T00:59:16.912Z,1.30
2022-08-18T01:01:44.716Z,1.48
2022-08-18T01:04:34.528Z,1.30
2022-08-18T01:07:06.617Z,1.20
2022-08-18T01:09:33.153Z,1.48
2022-08-18T01:11:59.729Z,1.20
2022-08-18T01:14:27.145Z,1.50
2022-08-18T01:17:12.542Z,1.23
2022-08-18T01:19:58.133Z,1.20
2022-08-18T01:22:29.507Z,1.23
2022-08-18T01:25:17.144Z,1.55
2022-08-18T01:27:43.798Z,1.20
2022-08-18T01:30:14.163Z,1.50
2022-08-18T01:32:42.104Z,1.23
2022-08-18T01:35:09.340Z,1.10
2022-08-18T01:37:36.533Z,1.33
2022-08-18T01:41:23.888Z,1.35
2022-08-18T01:42:53.927Z,1.08
2022-08-18T01:45:27.829Z,1.25
2022-08-18T01:47:54.625Z,0.98
2022-08-18T01:50:21.252Z,1.27
2022-08-18T01:52:47.851Z,1.33
2022-08-18T01:55:14.581Z,1.20
2022-08-18T01:57:43.060Z,1.40
2022-08-18T02:00:12.380Z,1.20
2022-08-18T02:02:39.933Z,1.30
2022-08-18T02:05:10.938Z,1.42
2022-08-18T02:07:38.384Z,1.17
2022-08-18T02:10:10.324Z,1.38
2022-08-18T02:12:39.848Z,1.20
2022-08-18T02:15:08.000Z,1.30
2022-08-18T02:17:43.460Z,1.38
2022-08-18T02:20:12.282Z,1.20
2022-08-18T02:22:41.334Z,1.50
2022-08-18T02:25:08.644Z,1.00
2022-08-18T02:27:35.337Z,1.50
2022-08-18T02:30:04.315Z,1.33
2022-08-18T02:32:32.141Z,1.38
2022-08-18T02:34:58.807Z,1.50
2022-08-18T02:37:25.703Z,1.85
2022-08-18T02:39:52.283Z,1.55
2022-08-18T02:42:18.905Z,1.60
2022-08-18T02:44:45.520Z,1.50
2022-08-18T02:47:12.088Z,1.70
2022-08-18T02:49:39.054Z,2.53
2022-08-18T02:52:06.179Z,1.92
2022-08-18T02:54:32.878Z,2.00
2022-08-18T02:56:59.428Z,2.13
2022-08-18T02:59:27.763Z,2.15
2022-08-18T03:01:56.253Z,2.00
2022-08-18T03:04:29.642Z,2.10
2022-08-18T03:07:00.559Z,2.28
2022-08-18T03:09:27.800Z,2.20
2022-08-18T03:11:54.718Z,2.65
2022-08-18T03:14:21.636Z,2.13
2022-08-18T03:16:54.376Z,2.60
2022-08-18T03:19:26.450Z,2.67
2022-08-18T03:21:53.302Z,2.17
2022-08-18T03:24:22.481Z,2.60
2022-08-18T03:26:51.424Z,2.40
2022-08-18T03:29:18.073Z,2.30
2022-08-18T03:31:45.457Z,2.22
2022-08-18T03:34:12.653Z,3.28
2022-08-18T03:36:39.696Z,2.80
2022-08-18T03:39:10.701Z,2.90
2022-08-18T03:41:43.759Z,2.30
2022-08-18T03:44:25.231Z,2.47
2022-08-18T03:46:52.279Z,2.40
2022-08-18T03:49:20.508Z,2.47
2022-08-18T03:51:48.746Z,2.75
2022-08-18T03:54:17.102Z,2.55
2022-08-18T03:56:45.545Z,3.08
2022-08-18T03:59:23.427Z,2.83
2022-08-18T04:01:51.775Z,2.78
2022-08-18T04:04:22.167Z,3.00
2022-08-18T04:06:51.192Z,2.78
2022-08-18T04:09:18.599Z,2.50
2022-08-18T04:11:46.053Z,2.60
2022-08-18T04:14:15.523Z,2.80
2022-08-18T04:16:42.395Z,2.60
2022-08-18T04:19:10.221Z,2.53
2022-08-18T04:21:39.474Z,2.60
2022-08-18T04:24:08.193Z,2.83
2022-08-18T04:26:37.891Z,2.45
2022-08-18T04:29:05.687Z,2.70
2022-08-18T04:31:33.549Z,2.53
2022-08-18T04:34:01.664Z,2.42
2022-08-18T04:36:30.370Z,2.75
2022-08-18T04:38:58.952Z,2.53
2022-08-18T04:41:27.585Z,2.58
2022-08-18T04:43:55.878Z,2.70
2022-08-18T04:46:24.273Z,2.45
2022-08-18T04:48:52.323Z,2.17
2022-08-18T04:52:36.668Z,2.25
2022-08-18T04:54:07.517Z,2.13
2022-08-18T04:56:37.501Z,2.28
2022-08-18T04:59:06.561Z,2.08
2022-08-18T05:01:48.369Z,2.00
2022-08-18T05:04:16.937Z,2.10
2022-08-18T05:06:44.678Z,2.08
2022-08-18T05:09:16.607Z,2.00
2022-08-18T05:11:49.233Z,2.58
2022-08-18T05:14:17.408Z,1.90
2022-08-18T05:16:48.807Z,1.70
2022-08-18T05:19:23.399Z,1.55
2022-08-18T05:21:53.566Z,2.25
2022-08-18T05:24:33.541Z,1.90
2022-08-18T05:27:04.366Z,1.65
2022-08-18T05:29:41.914Z,1.80
2022-08-18T05:32:41.199Z,2.00
2022-08-18T05:35:21.771Z,1.92
2022-08-18T05:38:00.755Z,1.85
2022-08-18T05:40:31.192Z,2.00
2022-08-18T05:42:59.349Z,1.70
2022-08-18T05:45:26.894Z,1.77
2022-08-18T05:47:58.708Z,1.85
2022-08-18T05:50:25.829Z,1.73
2022-08-18T05:52:58.012Z,1.70
2022-08-18T05:55:55.906Z,1.83
2022-08-18T05:58:32.925Z,1.98
2022-08-18T06:01:08.401Z,1.92
2022-08-18T06:03:45.505Z,1.90
2022-08-18T06:06:30.401Z,1.90
2022-08-18T06:09:20.237Z,1.85
2022-08-18T06:11:47.280Z,2.00
2022-08-18T06:14:13.988Z,2.03
2022-08-18T06:17:12.465Z,1.85
2022-08-18T06:20:03.163Z,2.00
2022-08-18T06:22:33.959Z,2.38
2022-08-18T06:25:28.455Z,1.75
2022-08-18T06:28:06.397Z,2.20
2022-08-18T06:30:33.169Z,1.83
2022-08-18T06:33:08.421Z,2.03
2022-08-18T06:35:42.433Z,1.88
2022-08-18T06:38:36.417Z,1.80
2022-08-18T06:41:03.212Z,1.90
2022-08-18T06:43:32.316Z,2.10
2022-08-18T06:45:59.009Z,1.73
2022-08-18T06:48:33.152Z,1.70
2022-08-18T06:51:01.880Z,1.67
2022-08-18T06:53:52.608Z,1.73
2022-08-18T06:56:34.910Z,2.00
2022-08-18T06:59:27.340Z,1.60
2022-08-18T07:02:01.964Z,1.55
2022-08-18T07:04:59.655Z,1.50
2022-08-18T07:07:39.183Z,1.40
2022-08-18T07:10:31.904Z,1.70
2022-08-18T07:13:18.848Z,1.30
2022-08-18T07:15:48.138Z,1.25
2022-08-18T07:18:20.816Z,1.50
2022-08-18T07:20:53.928Z,1.70
2022-08-18T07:23:26.476Z,1.75
2022-08-18T07:26:15.971Z,1.73
2022-08-18T07:28:48.113Z,2.00
2022-08-18T07:31:36.778Z,2.20
2022-08-18T07:34:14.011Z,2.55
2022-08-18T07:36:55.132Z,2.75
2022-08-18T07:39:31.816Z,2.67
2022-08-18T07:42:53.541Z,3.42
2022-08-18T07:45:25.308Z,3.33
2022-08-18T07:51:36.922Z,4.05
2022-08-18T07:54:48.203Z,3.80
2022-08-18T07:57:25.588Z,3.00
2022-08-18T08:00:04.246Z,2.97
2022-08-18T08:02:46.430Z,2.83
2022-08-18T08:05:43.553Z,2.50
2022-08-18T08:08:21.505Z,2.42
2022-08-18T08:10:59.306Z,2.40
2022-08-18T08:13:54.755Z,2.97
2022-08-18T08:16:28.644Z,2.50
2022-08-18T08:19:13.930Z,2.15
2022-08-18T08:22:04.979Z,2.00
2022-08-18T08:24:34.368Z,2.10
2022-08-18T08:27:00.852Z,1.92
2022-08-18T08:29:44.003Z,2.17
2022-08-18T08:32:19.315Z,1.70
2022-08-18T08:34:51.815Z,2.00
2022-08-18T08:37:23.528Z,1.83
2022-08-18T08:40:08.476Z,2.28
2022-08-18T08:42:58.457Z,1.90
2022-08-18T08:45:27.282Z,1.67
2022-08-18T08:48:08.898Z,1.67
2022-08-18T08:50:41.577Z,1.90
2022-08-18T08:53:11.671Z,2.13
2022-08-18T08:55:56.636Z,1.90
2022-08-18T08:58:31.898Z,1.58
2022-08-18T09:00:58.608Z,1.80
2022-08-18T09:03:53.440Z,1.70
2022-08-18T09:06:32.059Z,1.60
2022-08-18T09:09:17.282Z,1.67
2022-08-18T09:11:52.873Z,1.42
2022-08-18T09:14:51.453Z,1.70
2022-08-18T09:17:55.645Z,1.85
2022-08-18T09:20:40.250Z,2.03
2022-08-18T09:23:12.553Z,1.40
2022-08-18T09:25:39.442Z,1.50
2022-08-18T09:28:29.113Z,1.50
2022-08-18T09:34:13.207Z,1.60
2022-08-18T09:37:11.554Z,1.38
2022-08-18T09:43:31.671Z,1.30
2022-08-18T09:46:04.875Z,1.20
2022-08-18T09:48:43.247Z,0.88
2022-08-18T09:51:18.236Z,1.00
2022-08-18T09:54:08.671Z,0.98
2022-08-18T09:57:05.277Z,1.00
2022-08-18T09:59:35.524Z,1.02
2022-08-18T10:05:19.090Z,1.15
2022-08-18T10:07:53.969Z,1.20
2022-08-18T10:13:50.916Z,1.00
2022-08-18T10:17:13.200Z,1.08
2022-08-18T10:19:44.113Z,0.80
2022-08-18T10:22:38.523Z,1.17
2022-08-18T10:27:57.906Z,1.00
2022-08-18T10:30:57.363Z,0.77
2022-08-18T10:34:00.341Z,0.90
2022-08-18T10:36:38.696Z,0.90
2022-08-18T10:39:11.778Z,1.00
2022-08-18T10:42:15.067Z,1.10
2022-08-18T10:44:45.461Z,0.90
2022-08-18T10:50:22.361Z,0.90
2022-08-18T10:53:39.037Z,1.08
2022-08-18T10:56:33.729Z,1.00
2022-08-18T10:59:07.502Z,1.00
2022-08-18T11:01:53.266Z,1.17
2022-08-18T11:04:38.792Z,1.30
2022-08-18T11:07:10.570Z,1.20
2022-08-18T11:09:41.586Z,1.45
2022-08-18T11:12:12.709Z,1.20
2022-08-18T11:14:46.707Z,1.15
2022-08-18T11:17:47.987Z,1.10
2022-08-18T11:20:18.336Z,1.45
2022-08-18T11:23:00.526Z,1.42
2022-08-18T11:25:31.155Z,1.77
2022-08-18T11:27:59.631Z,1.93
2022-08-18T11:33:26.993Z,2.05
2022-08-18T11:35:59.382Z,2.40
2022-08-18T11:38:31.228Z,2.45
2022-08-18T11:41:17.838Z,2.65
2022-08-18T11:43:47.449Z,2.50
2022-08-18T11:46:27.717Z,2.83
2022-08-18T11:48:57.345Z,2.08
2022-08-18T11:51:25.382Z,2.42
2022-08-18T11:53:58.731Z,2.40
2022-08-18T11:56:35.847Z,2.28
2022-08-18T11:59:07.718Z,2.20
2022-08-18T12:01:43.879Z,2.70
2022-08-18T12:04:13.504Z,2.63
2022-08-18T12:06:51.211Z,2.20
2022-08-18T12:12:32.115Z,2.20
2022-08-18T12:15:23.872Z,2.17
2022-08-18T12:17:53.406Z,1.90
2022-08-18T12:20:21.767Z,1.90
2022-08-18T12:22:50.068Z,1.60
2022-08-18T12:25:25.407Z,2.00
2022-08-18T12:27:55.452Z,1.40
2022-08-18T12:30:22.102Z,1.60
2022-08-18T12:35:37.428Z,1.80
2022-08-18T12:38:12.489Z,1.65
2022-08-18T12:40:40.635Z,1.40
2022-08-18T12:43:07.507Z,1.40
2022-08-18T12:45:34.225Z,1.40
2022-08-18T12:48:04.126Z,1.38
2022-08-18T12:50:35.015Z,1.48
2022-08-18T12:53:05.814Z,1.33
2022-08-18T12:55:37.665Z,1.58
2022-08-18T12:58:10.385Z,1.35
2022-08-18T13:00:37.452Z,1.38
2022-08-18T13:03:04.046Z,1.50
2022-08-18T13:05:30.669Z,1.20
2022-08-18T13:08:04.041Z,1.55
2022-08-18T13:10:43.012Z,1.50
2022-08-18T13:13:14.227Z,1.55
2022-08-18T13:15:55.518Z,1.60
2022-08-18T13:18:27.378Z,1.55
2022-08-18T13:20:59.341Z,1.20
2022-08-18T13:23:27.608Z,1.52
2022-08-18T13:26:01.249Z,1.40
2022-08-18T13:28:30.925Z,1.50
2022-08-18T13:31:05.371Z,1.45
2022-08-18T13:33:34.653Z,1.30
2022-08-18T13:36:19.821Z,1.27
2022-08-18T13:38:46.622Z,1.00
2022-08-18T13:41:15.810Z,1.00
2022-08-18T13:43:44.511Z,1.00
2022-08-18T13:46:13.301Z,1.00
2022-08-18T13:48:41.770Z,1.10
2022-08-18T13:51:10.174Z,1.10
2022-08-18T13:53:50.387Z,1.02
2022-08-18T13:56:31.401Z,0.90
2022-08-18T13:58:58.667Z,1.15
2022-08-18T14:01:44.407Z,0.90
2022-08-18T14:04:15.010Z,0.82
2022-08-18T14:06:56.365Z,1.20
2022-08-18T14:09:35.871Z,1.15
2022-08-18T14:12:06.767Z,0.80
2022-08-18T14:14:42.338Z,1.30
2022-08-18T14:17:09.119Z,1.20
2022-08-18T14:19:54.479Z,1.13
2022-08-18T14:22:41.376Z,1.08
2022-08-18T14:25:28.147Z,1.02
2022-08-18T14:27:56.547Z,1.27
2022-08-18T14:30:24.249Z,1.50
2022-08-18T14:32:53.598Z,1.02
2022-08-18T14:35:34.263Z,1.08
2022-08-18T14:38:09.977Z,1.30
2022-08-18T14:40:41.753Z,1.10
2022-08-18T14:49:31.440Z,0.88
2022-08-18T14:51:59.626Z,1.00
2022-08-18T14:54:28.263Z,0.93
2022-08-18T14:56:55.899Z,1.10
2022-08-18T14:59:23.700Z,1.10
2022-08-18T15:01:51.449Z,1.20
2022-08-18T15:04:19.829Z,1.20
2022-08-18T15:06:56.225Z,1.35
2022-08-18T15:09:27.455Z,1.23
2022-08-18T15:11:56.309Z,1.30
2022-08-18T15:14:32.661Z,1.33
2022-08-18T15:17:00.528Z,1.20
2022-08-18T15:19:59.011Z,1.30
2022-08-18T15:22:32.865Z,1.27
2022-08-18T15:25:17.973Z,1.20
2022-08-18T15:27:48.030Z,1.48
2022-08-18T15:30:20.281Z,1.20
2022-08-18T15:32:49.726Z,1.20
2022-08-18T15:35:19.521Z,1.27
2022-08-18T15:37:51.047Z,1.30
2022-08-18T15:40:30.793Z,1.27
2022-08-18T15:43:06.844Z,1.10
2022-08-18T15:45:42.875Z,1.20
2022-08-18T15:48:10.975Z,1.30
2022-08-18T15:50:42.628Z,1.10
2022-08-18T15:53:20.767Z,1.02
2022-08-18T15:55:50.202Z,1.10
2022-08-18T15:58:18.225Z,1.10
2022-08-18T16:00:50.639Z,1.17
2022-08-18T16:03:17.798Z,1.20
2022-08-18T16:05:53.285Z,1.35
2022-08-18T16:08:25.628Z,1.13
2022-08-18T16:10:53.488Z,0.95
2022-08-18T16:13:20.279Z,1.40
2022-08-18T16:15:48.283Z,1.00
2022-08-18T16:18:18.542Z,1.13
2022-08-18T16:20:47.615Z,1.00
2022-08-18T16:25:44.010Z,1.10
2022-08-18T16:28:13.254Z,1.00
2022-08-18T16:30:40.427Z,1.00
2022-08-18T16:33:07.282Z,1.10
2022-08-18T16:35:34.896Z,1.23
2022-08-18T16:38:05.042Z,1.25
2022-08-18T16:40:31.830Z,1.10
2022-08-18T16:43:00.617Z,1.15
2022-08-18T16:45:28.157Z,1.05
2022-08-18T16:47:54.989Z,1.23
2022-08-18T16:50:22.919Z,1.35
2022-08-18T16:52:49.644Z,1.40
2022-08-18T16:55:16.262Z,1.02
2022-08-18T16:58:02.232Z,1.10
2022-08-18T17:00:51.537Z,1.17
2022-08-18T17:03:42.097Z,1.30
2022-08-18T17:06:15.604Z,0.98
2022-08-18T17:08:43.162Z,0.93
2022-08-18T17:11:16.048Z,1.08
2022-08-18T17:13:43.916Z,1.00
2022-08-18T17:16:11.340Z,1.10
2022-08-18T17:18:38.259Z,1.00
2022-08-18T17:21:10.247Z,1.10
2022-08-18T17:23:38.854Z,1.38
2022-08-18T17:26:07.980Z,1.40
2022-08-18T17:28:50.148Z,1.00
2022-08-18T17:33:45.647Z,1.10
2022-08-18T17:36:21.552Z,1.00
2022-08-18T17:38:54.480Z,1.20
2022-08-18T17:41:21.303Z,1.00
2022-08-18T17:43:48.172Z,1.15
2022-08-18T17:46:28.658Z,1.20
2022-08-18T17:49:03.536Z,1.00
2022-08-18T17:51:44.919Z,1.17
2022-08-18T17:54:38.094Z,0.88
2022-08-18T17:57:29.210Z,1.00
2022-08-18T18:00:08.427Z,1.38
2022-08-18T18:02:35.164Z,1.10
2022-08-18T18:05:06.533Z,1.30
2022-08-18T18:10:14.330Z,1.02
2022-08-18T18:12:41.440Z,1.40
2022-08-18T18:15:11.824Z,1.48
2022-08-18T18:17:41.110Z,1.38
2022-08-18T18:20:25.427Z,1.70
2022-08-18T18:22:52.437Z,1.55
2022-08-18T18:25:34.430Z,1.60
2022-08-18T18:28:01.649Z,1.80
2022-08-18T18:30:32.672Z,1.67
2022-08-18T18:33:03.326Z,1.80
2022-08-18T18:35:34.174Z,1.60
2022-08-18T18:38:06.532Z,1.70
2022-08-18T18:40:39.631Z,1.70
2022-08-18T18:43:46.974Z,2.05
2022-08-18T18:46:25.233Z,1.70
2022-08-18T18:49:10.693Z,1.42
2022-08-18T18:51:50.571Z,1.60
2022-08-18T18:54:35.990Z,1.52
2022-08-18T18:57:09.788Z,1.80
2022-08-18T19:02:49.702Z,2.00
2022-08-18T19:05:40.539Z,1.63
2022-08-18T19:08:33.042Z,2.27
2022-08-18T19:11:07.263Z,1.80
2022-08-18T19:13:43.063Z,1.80
2022-08-18T19:16:24.554Z,1.88
2022-08-18T19:19:36.259Z,1.65
2022-08-18T19:22:06.443Z,1.80
2022-08-18T19:24:38.892Z,2.00
2022-08-18T19:27:07.582Z,2.00
2022-08-18T19:29:37.941Z,1.83
2022-08-18T19:32:10.663Z,1.95
2022-08-18T19:34:51.504Z,1.95
2022-08-18T19:37:42.007Z,2.17
2022-08-18T19:40:30.553Z,2.00
2022-08-18T19:43:06.532Z,2.38
2022-08-18T19:45:42.253Z,1.90
2022-08-18T19:48:31.630Z,2.03
2022-08-18T19:51:12.390Z,2.03
2022-08-18T19:53:56.611Z,2.03
2022-08-18T19:56:56.643Z,1.80
2022-08-18T19:59:47.927Z,1.95
2022-08-18T20:02:51.824Z,2.00
2022-08-18T20:05:20.457Z,1.60
2022-08-18T20:08:07.900Z,2.00
2022-08-18T20:10:57.923Z,1.70
2022-08-18T20:13:33.046Z,1.70
2022-08-18T20:16:02.408Z,1.70
2022-08-18T20:18:35.500Z,1.50
2022-08-18T20:21:14.122Z,1.55
2022-08-18T20:23:56.144Z,1.50
2022-08-18T20:26:34.754Z,1.48
2022-08-18T20:29:01.779Z,1.40
2022-08-18T20:31:45.119Z,1.60
2022-08-18T20:34:14.696Z,1.70
2022-08-18T20:36:43.274Z,1.70
2022-08-18T20:39:40.940Z,1.73
2022-08-18T20:42:29.199Z,1.48
2022-08-18T20:45:00.163Z,1.30
2022-08-18T20:47:29.615Z,1.40
2022-08-18T20:50:34.041Z,1.55
2022-08-18T20:53:39.815Z,1.80
2022-08-18T20:56:31.341Z,1.35
2022-08-18T20:59:09.333Z,1.60
2022-08-18T21:01:36.835Z,1.40
2022-08-18T21:04:03.571Z,1.20
2022-08-18T21:06:44.626Z,1.30
2022-08-18T21:09:17.693Z,1.20
2022-08-18T21:11:45.731Z,1.10
2022-08-18T21:14:14.995Z,0.90
2022-08-18T21:16:45.221Z,0.90
2022-08-18T21:19:20.047Z,0.90
2022-08-18T21:21:53.744Z,0.90
2022-08-18T21:24:44.548Z,0.90
2022-08-18T21:27:19.430Z,0.90
2022-08-18T21:29:49.610Z,0.77
2022-08-18T21:32:22.872Z,0.70
2022-08-18T21:34:49.662Z,0.70
2022-08-18T21:37:18.253Z,0.77
2022-08-18T21:39:56.962Z,0.80
2022-08-18T21:42:29.840Z,0.80
2022-08-18T21:45:00.515Z,0.70
2022-08-18T21:47:33.303Z,0.70
2022-08-18T21:50:08.335Z,0.80
2022-08-18T21:52:37.340Z,0.80
2022-08-18T21:55:16.577Z,0.80
2022-08-18T21:58:17.917Z,0.82
2022-08-18T22:00:46.260Z,0.70
2022-08-18T22:03:22.632Z,0.85
2022-08-18T22:06:03.033Z,0.70
2022-08-18T22:08:32.553Z,0.85
2022-08-18T22:12:01.138Z,1.05
2022-08-18T22:14:54.755Z,1.00
2022-08-18T22:17:30.061Z,1.20
2022-08-18T22:20:31.748Z,1.02
2022-08-18T22:23:42.813Z,1.05
2022-08-18T22:26:29.667Z,1.10
2022-08-18T22:29:02.265Z,0.90
2022-08-18T22:31:33.182Z,0.80
2022-08-18T22:34:02.114Z,1.00
2022-08-18T22:36:31.250Z,0.90
2022-08-18T22:38:58.019Z,1.08
2022-08-18T22:41:25.568Z,0.93
2022-08-18T22:43:54.778Z,1.20
2022-08-18T22:46:24.793Z,1.13
2022-08-18T22:48:52.728Z,1.05
2022-08-18T22:51:21.825Z,1.17
2022-08-18T22:53:48.395Z,0.95
2022-08-18T22:56:14.945Z,0.90
2022-08-18T22:58:49.289Z,1.10
2022-08-18T23:01:17.362Z,1.10
2022-08-18T23:03:44.029Z,1.00
2022-08-18T23:06:10.764Z,0.90
2022-08-18T23:08:54.862Z,0.80
2022-08-18T23:11:22.412Z,1.10
2022-08-18T23:13:48.977Z,1.05
2022-08-18T23:16:31.182Z,0.90
2022-08-18T23:19:03.530Z,1.10
2022-08-18T23:21:34.963Z,0.90
2022-08-18T23:24:05.894Z,1.10
2022-08-18T23:26:34.130Z,1.30
2022-08-18T23:29:01.005Z,1.05
2022-08-18T23:31:27.916Z,1.10
2022-08-18T23:33:54.483Z,1.08
2022-08-18T23:36:21.288Z,1.33
2022-08-18T23:38:47.976Z,0.88
2022-08-18T23:41:16.248Z,0.90
2022-08-18T23:43:43.246Z,0.90
2022-08-18T23:46:22.082Z,0.90
